sensor_id;sensor_type;location;lat;lon;timestamp;temperature;humidity
26517;DHT22;14190;51.342;6.338;2022-10-26T00:01:17;13.20;99.90
26517;DHT22;14190;51.342;6.338;2022-10-26T00:03:45;13.20;99.90
26517;DHT22;14190;51.342;6.338;2022-10-26T00:06:15;13.20;99.90
26517;DHT22;14190;51.342;6.338;2022-10-26T00:08:44;13.20;99.90
26517;DHT22;14190;51.342;6.338;2022-10-26T00:11:14;13.20;99.90
26517;DHT22;14190;51.342;6.338;2022-10-26T00:13:43;13.20;99.90
26517;DHT22;14190;51.342;6.338;2022-10-26T00:16:17;13.20;99.90
26517;DHT22;14190;51.342;6.338;2022-10-26T00:18:42;13.20;99.90
26517;DHT22;14190;51.342;6.338;2022-10-26T00:21:11;13.20;99.90
26517;DHT22;14190;51.342;6.338;2022-10-26T00:23:40;13.20;99.90
26517;DHT22;14190;51.342;6.338;2022-10-26T00:26:09;13.20;99.90
26517;DHT22;14190;51.342;6.338;2022-10-26T00:28:38;13.20;99.90
26517;DHT22;14190;51.342;6.338;2022-10-26T00:31:13;13.20;99.90
26517;DHT22;14190;51.342;6.338;2022-10-26T00:33:36;13.20;99.90
26517;DHT22;14190;51.342;6.338;2022-10-26T00:36:05;13.20;99.90
26517;DHT22;14190;51.342;6.338;2022-10-26T00:38:36;13.20;99.90
26517;DHT22;14190;51.342;6.338;2022-10-26T00:41:05;13.20;99.90
26517;DHT22;14190;51.342;6.338;2022-10-26T00:43:34;13.20;99.90
26517;DHT22;14190;51.342;6.338;2022-10-26T00:46:04;13.20;99.90
26517;DHT22;14190;51.342;6.338;2022-10-26T00:48:39;13.20;99.90
26517;DHT22;14190;51.342;6.338;2022-10-26T00:51:05;13.30;99.90
26517;DHT22;14190;51.342;6.338;2022-10-26T00:53:35;13.30;99.90
26517;DHT22;14190;51.342;6.338;2022-10-26T00:56:04;13.30;99.90
26517;DHT22;14190;51.342;6.338;2022-10-26T00:58:33;13.30;99.90
26517;DHT22;14190;51.342;6.338;2022-10-26T01:01:02;13.30;99.90
26517;DHT22;14190;51.342;6.338;2022-10-26T01:03:32;13.30;99.90
26517;DHT22;14190;51.342;6.338;2022-10-26T01:06:02;13.30;99.90
26517;DHT22;14190;51.342;6.338;2022-10-26T01:08:31;13.20;99.90
26517;DHT22;14190;51.342;6.338;2022-10-26T01:11:00;13.20;99.90
26517;DHT22;14190;51.342;6.338;2022-10-26T01:13:30;13.20;99.90
26517;DHT22;14190;51.342;6.338;2022-10-26T01:21:19;13.20;99.90
26517;DHT22;14190;51.342;6.338;2022-10-26T01:26:32;13.20;99.90
26517;DHT22;14190;51.342;6.338;2022-10-26T01:31:40;13.30;99.90
26517;DHT22;14190;51.342;6.338;2022-10-26T01:34:14;13.30;99.90
26517;DHT22;14190;51.342;6.338;2022-10-26T01:36:45;13.30;99.90
26517;DHT22;14190;51.342;6.338;2022-10-26T01:39:18;13.30;99.90
26517;DHT22;14190;51.342;6.338;2022-10-26T01:41:47;13.30;99.90
26517;DHT22;14190;51.342;6.338;2022-10-26T01:44:20;13.30;99.90
26517;DHT22;14190;51.342;6.338;2022-10-26T01:46:50;13.30;99.90
26517;DHT22;14190;51.342;6.338;2022-10-26T01:49:21;13.40;99.90
26517;DHT22;14190;51.342;6.338;2022-10-26T01:51:50;13.40;99.90
26517;DHT22;14190;51.342;6.338;2022-10-26T01:54:18;13.40;99.90
26517;DHT22;14190;51.342;6.338;2022-10-26T01:56:48;13.40;99.90
26517;DHT22;14190;51.342;6.338;2022-10-26T02:06:56;13.40;99.90
26517;DHT22;14190;51.342;6.338;2022-10-26T02:11:58;13.40;99.90
26517;DHT22;14190;51.342;6.338;2022-10-26T02:14:33;13.40;99.90
26517;DHT22;14190;51.342;6.338;2022-10-26T02:17:06;13.50;99.90
26517;DHT22;14190;51.342;6.338;2022-10-26T02:19:42;13.50;99.90
26517;DHT22;14190;51.342;6.338;2022-10-26T02:22:17;13.50;99.90
26517;DHT22;14190;51.342;6.338;2022-10-26T02:24:47;13.50;99.90
26517;DHT22;14190;51.342;6.338;2022-10-26T02:27:19;13.50;99.90
26517;DHT22;14190;51.342;6.338;2022-10-26T02:29:47;13.50;99.90
26517;DHT22;14190;51.342;6.338;2022-10-26T02:32:18;13.50;99.90
26517;DHT22;14190;51.342;6.338;2022-10-26T02:34:48;13.60;99.90
26517;DHT22;14190;51.342;6.338;2022-10-26T02:37:19;13.60;99.90
26517;DHT22;14190;51.342;6.338;2022-10-26T02:39:49;13.60;99.90
26517;DHT22;14190;51.342;6.338;2022-10-26T02:42:19;13.70;99.90
26517;DHT22;14190;51.342;6.338;2022-10-26T02:44:54;13.70;99.90
26517;DHT22;14190;51.342;6.338;2022-10-26T02:47:19;13.70;99.90
26517;DHT22;14190;51.342;6.338;2022-10-26T02:49:48;13.70;99.90
26517;DHT22;14190;51.342;6.338;2022-10-26T02:54:57;13.70;99.90
26517;DHT22;14190;51.342;6.338;2022-10-26T02:57:26;13.70;99.90
26517;DHT22;14190;51.342;6.338;2022-10-26T02:59:51;13.70;99.90
26517;DHT22;14190;51.342;6.338;2022-10-26T03:02:21;13.70;99.90
26517;DHT22;14190;51.342;6.338;2022-10-26T03:04:50;13.80;99.90
26517;DHT22;14190;51.342;6.338;2022-10-26T03:07:21;13.80;99.90
26517;DHT22;14190;51.342;6.338;2022-10-26T03:09:49;13.80;99.90
26517;DHT22;14190;51.342;6.338;2022-10-26T03:12:18;13.80;99.90
26517;DHT22;14190;51.342;6.338;2022-10-26T03:14:47;13.80;99.90
26517;DHT22;14190;51.342;6.338;2022-10-26T03:17:16;13.90;99.90
26517;DHT22;14190;51.342;6.338;2022-10-26T03:19:45;13.90;99.90
26517;DHT22;14190;51.342;6.338;2022-10-26T03:22:13;13.90;99.90
26517;DHT22;14190;51.342;6.338;2022-10-26T03:24:42;13.90;99.90
26517;DHT22;14190;51.342;6.338;2022-10-26T03:27:11;13.90;99.90
26517;DHT22;14190;51.342;6.338;2022-10-26T03:29:40;13.90;99.90
26517;DHT22;14190;51.342;6.338;2022-10-26T03:32:08;13.90;99.90
26517;DHT22;14190;51.342;6.338;2022-10-26T03:34:37;13.90;99.90
26517;DHT22;14190;51.342;6.338;2022-10-26T03:37:06;13.90;99.90
26517;DHT22;14190;51.342;6.338;2022-10-26T03:39:34;14.00;99.90
26517;DHT22;14190;51.342;6.338;2022-10-26T03:42:03;14.00;99.90
26517;DHT22;14190;51.342;6.338;2022-10-26T03:44:32;14.00;99.90
26517;DHT22;14190;51.342;6.338;2022-10-26T03:47:00;14.00;99.90
26517;DHT22;14190;51.342;6.338;2022-10-26T03:49:29;14.00;99.90
26517;DHT22;14190;51.342;6.338;2022-10-26T03:51:58;14.00;99.90
26517;DHT22;14190;51.342;6.338;2022-10-26T03:54:26;14.00;99.90
26517;DHT22;14190;51.342;6.338;2022-10-26T03:56:55;14.10;99.90
26517;DHT22;14190;51.342;6.338;2022-10-26T03:59:24;14.10;99.90
26517;DHT22;14190;51.342;6.338;2022-10-26T04:01:53;14.10;99.90
26517;DHT22;14190;51.342;6.338;2022-10-26T04:04:21;14.10;99.90
26517;DHT22;14190;51.342;6.338;2022-10-26T04:06:50;14.10;99.90
26517;DHT22;14190;51.342;6.338;2022-10-26T04:09:19;14.20;99.90
26517;DHT22;14190;51.342;6.338;2022-10-26T04:11:47;14.20;99.90
26517;DHT22;14190;51.342;6.338;2022-10-26T04:14:16;14.20;99.90
26517;DHT22;14190;51.342;6.338;2022-10-26T04:16:45;14.20;99.90
26517;DHT22;14190;51.342;6.338;2022-10-26T04:19:13;14.30;99.90
26517;DHT22;14190;51.342;6.338;2022-10-26T04:21:42;14.30;99.90
26517;DHT22;14190;51.342;6.338;2022-10-26T04:24:11;14.30;99.90
26517;DHT22;14190;51.342;6.338;2022-10-26T04:26:39;14.30;99.90
26517;DHT22;14190;51.342;6.338;2022-10-26T04:29:09;14.30;99.90
26517;DHT22;14190;51.342;6.338;2022-10-26T04:31:38;14.30;99.90
26517;DHT22;14190;51.342;6.338;2022-10-26T04:34:07;14.30;99.90
26517;DHT22;14190;51.342;6.338;2022-10-26T04:36:36;14.40;99.90
26517;DHT22;14190;51.342;6.338;2022-10-26T04:39:05;14.40;99.90
26517;DHT22;14190;51.342;6.338;2022-10-26T04:41:34;14.40;99.90
26517;DHT22;14190;51.342;6.338;2022-10-26T04:44:02;14.40;99.90
26517;DHT22;14190;51.342;6.338;2022-10-26T04:46:31;14.40;99.90
26517;DHT22;14190;51.342;6.338;2022-10-26T04:49:00;14.40;99.90
26517;DHT22;14190;51.342;6.338;2022-10-26T04:51:29;14.40;99.90
26517;DHT22;14190;51.342;6.338;2022-10-26T04:53:57;14.40;99.90
26517;DHT22;14190;51.342;6.338;2022-10-26T04:56:26;14.40;99.90
26517;DHT22;14190;51.342;6.338;2022-10-26T04:58:55;14.30;99.90
26517;DHT22;14190;51.342;6.338;2022-10-26T05:01:24;14.30;99.90
26517;DHT22;14190;51.342;6.338;2022-10-26T05:03:52;14.30;99.90
26517;DHT22;14190;51.342;6.338;2022-10-26T05:06:21;14.30;99.90
26517;DHT22;14190;51.342;6.338;2022-10-26T05:08:50;14.30;99.90
26517;DHT22;14190;51.342;6.338;2022-10-26T05:11:19;14.30;99.90
26517;DHT22;14190;51.342;6.338;2022-10-26T05:13:47;14.30;99.90
26517;DHT22;14190;51.342;6.338;2022-10-26T05:16:16;14.30;99.90
26517;DHT22;14190;51.342;6.338;2022-10-26T05:18:50;14.30;99.90
26517;DHT22;14190;51.342;6.338;2022-10-26T05:21:17;14.40;99.90
26517;DHT22;14190;51.342;6.338;2022-10-26T05:23:49;14.40;99.90
26517;DHT22;14190;51.342;6.338;2022-10-26T05:26:21;14.40;99.90
26517;DHT22;14190;51.342;6.338;2022-10-26T05:28:50;14.40;99.90
26517;DHT22;14190;51.342;6.338;2022-10-26T05:31:19;14.40;99.90
26517;DHT22;14190;51.342;6.338;2022-10-26T05:33:53;14.40;99.90
26517;DHT22;14190;51.342;6.338;2022-10-26T05:36:19;14.40;99.90
26517;DHT22;14190;51.342;6.338;2022-10-26T05:38:47;14.40;99.90
26517;DHT22;14190;51.342;6.338;2022-10-26T05:41:16;14.40;99.90
26517;DHT22;14190;51.342;6.338;2022-10-26T05:43:46;14.50;99.90
26517;DHT22;14190;51.342;6.338;2022-10-26T05:46:15;14.50;99.90
26517;DHT22;14190;51.342;6.338;2022-10-26T05:48:43;14.50;99.90
26517;DHT22;14190;51.342;6.338;2022-10-26T05:51:12;14.50;99.90
26517;DHT22;14190;51.342;6.338;2022-10-26T05:53:41;14.60;99.90
26517;DHT22;14190;51.342;6.338;2022-10-26T05:56:18;14.60;99.90
26517;DHT22;14190;51.342;6.338;2022-10-26T05:58:43;14.60;99.90
26517;DHT22;14190;51.342;6.338;2022-10-26T06:01:16;14.70;99.90
26517;DHT22;14190;51.342;6.338;2022-10-26T06:03:46;14.70;99.90
26517;DHT22;14190;51.342;6.338;2022-10-26T06:06:13;14.80;99.90
26517;DHT22;14190;51.342;6.338;2022-10-26T06:08:42;14.80;99.90
26517;DHT22;14190;51.342;6.338;2022-10-26T06:11:11;14.90;99.90
26517;DHT22;14190;51.342;6.338;2022-10-26T06:13:40;14.90;99.90
26517;DHT22;14190;51.342;6.338;2022-10-26T06:18:58;14.90;99.90
26517;DHT22;14190;51.342;6.338;2022-10-26T06:27:02;15.00;99.90
26517;DHT22;14190;51.342;6.338;2022-10-26T06:32:12;14.90;99.90
26517;DHT22;14190;51.342;6.338;2022-10-26T06:34:44;14.90;99.90
26517;DHT22;14190;51.342;6.338;2022-10-26T06:37:14;14.90;99.90
26517;DHT22;14190;51.342;6.338;2022-10-26T06:39:46;14.90;99.90
26517;DHT22;14190;51.342;6.338;2022-10-26T06:42:16;14.90;99.90
26517;DHT22;14190;51.342;6.338;2022-10-26T06:44:45;14.90;99.90
26517;DHT22;14190;51.342;6.338;2022-10-26T06:47:23;15.00;99.90
26517;DHT22;14190;51.342;6.338;2022-10-26T06:49:59;15.00;99.90
26517;DHT22;14190;51.342;6.338;2022-10-26T06:52:34;15.00;99.90
26517;DHT22;14190;51.342;6.338;2022-10-26T06:55:03;15.00;99.90
26517;DHT22;14190;51.342;6.338;2022-10-26T06:57:33;15.00;99.90
26517;DHT22;14190;51.342;6.338;2022-10-26T07:00:05;15.10;99.90
26517;DHT22;14190;51.342;6.338;2022-10-26T07:02:35;15.10;99.90
26517;DHT22;14190;51.342;6.338;2022-10-26T07:05:04;15.10;99.90
26517;DHT22;14190;51.342;6.338;2022-10-26T07:07:34;15.20;99.90
26517;DHT22;14190;51.342;6.338;2022-10-26T07:10:04;15.20;99.90
26517;DHT22;14190;51.342;6.338;2022-10-26T07:12:33;15.20;99.90
26517;DHT22;14190;51.342;6.338;2022-10-26T07:15:02;15.20;99.90
26517;DHT22;14190;51.342;6.338;2022-10-26T07:17:38;15.20;99.90
26517;DHT22;14190;51.342;6.338;2022-10-26T07:20:02;15.30;99.90
26517;DHT22;14190;51.342;6.338;2022-10-26T07:22:30;15.30;99.90
26517;DHT22;14190;51.342;6.338;2022-10-26T07:24:59;15.40;99.90
26517;DHT22;14190;51.342;6.338;2022-10-26T07:27:28;15.40;99.90
26517;DHT22;14190;51.342;6.338;2022-10-26T07:29:56;15.50;99.90
26517;DHT22;14190;51.342;6.338;2022-10-26T07:32:25;15.50;99.90
26517;DHT22;14190;51.342;6.338;2022-10-26T07:34:54;15.60;99.90
26517;DHT22;14190;51.342;6.338;2022-10-26T07:37:22;15.60;99.90
26517;DHT22;14190;51.342;6.338;2022-10-26T07:39:51;15.70;99.90
26517;DHT22;14190;51.342;6.338;2022-10-26T07:42:20;15.80;99.90
26517;DHT22;14190;51.342;6.338;2022-10-26T07:44:49;15.90;99.90
26517;DHT22;14190;51.342;6.338;2022-10-26T07:47:19;16.10;99.90
26517;DHT22;14190;51.342;6.338;2022-10-26T07:49:48;16.10;99.90
26517;DHT22;14190;51.342;6.338;2022-10-26T07:52:16;16.00;99.90
26517;DHT22;14190;51.342;6.338;2022-10-26T07:54:45;16.10;99.90
26517;DHT22;14190;51.342;6.338;2022-10-26T07:57:19;16.30;99.90
26517;DHT22;14190;51.342;6.338;2022-10-26T07:59:44;16.40;99.90
26517;DHT22;14190;51.342;6.338;2022-10-26T08:02:13;16.40;99.90
26517;DHT22;14190;51.342;6.338;2022-10-26T08:04:42;16.60;99.90
26517;DHT22;14190;51.342;6.338;2022-10-26T08:07:10;17.00;99.90
26517;DHT22;14190;51.342;6.338;2022-10-26T08:09:39;17.30;99.90
26517;DHT22;14190;51.342;6.338;2022-10-26T08:12:08;17.30;99.90
26517;DHT22;14190;51.342;6.338;2022-10-26T08:14:37;17.40;99.90
26517;DHT22;14190;51.342;6.338;2022-10-26T08:17:06;17.60;99.90
26517;DHT22;14190;51.342;6.338;2022-10-26T08:19:34;17.80;99.90
26517;DHT22;14190;51.342;6.338;2022-10-26T08:22:03;17.90;99.90
26517;DHT22;14190;51.342;6.338;2022-10-26T08:24:33;18.10;99.90
26517;DHT22;14190;51.342;6.338;2022-10-26T08:27:01;18.20;99.90
26517;DHT22;14190;51.342;6.338;2022-10-26T08:29:31;18.40;99.90
26517;DHT22;14190;51.342;6.338;2022-10-26T08:32:00;18.60;99.90
26517;DHT22;14190;51.342;6.338;2022-10-26T08:34:29;18.80;99.90
26517;DHT22;14190;51.342;6.338;2022-10-26T08:36:57;18.90;99.90
26517;DHT22;14190;51.342;6.338;2022-10-26T08:39:26;19.10;99.90
26517;DHT22;14190;51.342;6.338;2022-10-26T08:42:09;19.00;99.90
26517;DHT22;14190;51.342;6.338;2022-10-26T08:44:35;19.00;99.90
26517;DHT22;14190;51.342;6.338;2022-10-26T08:47:13;19.00;99.90
26517;DHT22;14190;51.342;6.338;2022-10-26T08:49:47;19.00;99.90
26517;DHT22;14190;51.342;6.338;2022-10-26T08:52:13;19.00;99.90
26517;DHT22;14190;51.342;6.338;2022-10-26T08:54:49;18.90;99.90
26517;DHT22;14190;51.342;6.338;2022-10-26T08:57:20;18.80;99.90
26517;DHT22;14190;51.342;6.338;2022-10-26T08:59:55;18.80;99.90
26517;DHT22;14190;51.342;6.338;2022-10-26T09:02:24;18.90;99.90
26517;DHT22;14190;51.342;6.338;2022-10-26T09:04:53;19.10;99.90
26517;DHT22;14190;51.342;6.338;2022-10-26T09:07:36;19.30;99.90
26517;DHT22;14190;51.342;6.338;2022-10-26T09:10:26;19.50;99.90
26517;DHT22;14190;51.342;6.338;2022-10-26T09:15:44;19.90;99.90
26517;DHT22;14190;51.342;6.338;2022-10-26T09:18:15;20.10;99.90
26517;DHT22;14190;51.342;6.338;2022-10-26T09:20:52;20.20;99.90
26517;DHT22;14190;51.342;6.338;2022-10-26T09:25:52;20.40;99.90
26517;DHT22;14190;51.342;6.338;2022-10-26T09:28:19;20.50;99.90
26517;DHT22;14190;51.342;6.338;2022-10-26T09:30:48;20.50;99.90
26517;DHT22;14190;51.342;6.338;2022-10-26T09:33:18;20.50;99.90
26517;DHT22;14190;51.342;6.338;2022-10-26T09:36:01;20.60;99.90
26517;DHT22;14190;51.342;6.338;2022-10-26T09:38:31;20.70;99.90
26517;DHT22;14190;51.342;6.338;2022-10-26T09:41:24;20.70;99.90
26517;DHT22;14190;51.342;6.338;2022-10-26T09:43:57;20.80;99.90
26517;DHT22;14190;51.342;6.338;2022-10-26T09:46:30;20.80;99.90
26517;DHT22;14190;51.342;6.338;2022-10-26T09:49:05;20.80;99.90
26517;DHT22;14190;51.342;6.338;2022-10-26T09:51:36;20.70;99.90
26517;DHT22;14190;51.342;6.338;2022-10-26T09:54:12;20.80;99.90
26517;DHT22;14190;51.342;6.338;2022-10-26T09:56:36;20.90;99.90
26517;DHT22;14190;51.342;6.338;2022-10-26T09:59:05;20.80;99.90
26517;DHT22;14190;51.342;6.338;2022-10-26T10:01:34;20.80;99.90
26517;DHT22;14190;51.342;6.338;2022-10-26T10:06:45;20.90;99.90
26517;DHT22;14190;51.342;6.338;2022-10-26T10:09:15;20.90;99.90
26517;DHT22;14190;51.342;6.338;2022-10-26T10:11:45;20.80;99.90
26517;DHT22;14190;51.342;6.338;2022-10-26T10:14:15;20.80;99.90
26517;DHT22;14190;51.342;6.338;2022-10-26T10:16:54;20.80;99.90
26517;DHT22;14190;51.342;6.338;2022-10-26T10:19:31;20.90;99.90
26517;DHT22;14190;51.342;6.338;2022-10-26T10:22:00;20.80;99.90
26517;DHT22;14190;51.342;6.338;2022-10-26T10:24:31;20.80;99.90
26517;DHT22;14190;51.342;6.338;2022-10-26T10:27:01;20.80;99.90
26517;DHT22;14190;51.342;6.338;2022-10-26T10:29:31;20.80;99.90
26517;DHT22;14190;51.342;6.338;2022-10-26T10:32:00;20.80;99.90
26517;DHT22;14190;51.342;6.338;2022-10-26T10:34:30;20.80;99.90
26517;DHT22;14190;51.342;6.338;2022-10-26T10:36:59;20.80;99.90
26517;DHT22;14190;51.342;6.338;2022-10-26T10:39:40;20.70;99.90
26517;DHT22;14190;51.342;6.338;2022-10-26T10:42:13;20.80;99.90
26517;DHT22;14190;51.342;6.338;2022-10-26T10:44:40;20.80;99.90
26517;DHT22;14190;51.342;6.338;2022-10-26T10:47:15;20.70;99.90
26517;DHT22;14190;51.342;6.338;2022-10-26T10:49:40;20.80;99.90
26517;DHT22;14190;51.342;6.338;2022-10-26T10:52:21;20.80;99.90
26517;DHT22;14190;51.342;6.338;2022-10-26T10:54:41;20.80;99.90
26517;DHT22;14190;51.342;6.338;2022-10-26T10:57:19;20.90;99.90
26517;DHT22;14190;51.342;6.338;2022-10-26T10:59:55;20.90;99.90
26517;DHT22;14190;51.342;6.338;2022-10-26T11:02:30;20.90;99.90
26517;DHT22;14190;51.342;6.338;2022-10-26T11:04:58;20.90;99.90
26517;DHT22;14190;51.342;6.338;2022-10-26T11:07:26;21.00;99.90
26517;DHT22;14190;51.342;6.338;2022-10-26T11:09:55;21.00;99.90
26517;DHT22;14190;51.342;6.338;2022-10-26T11:12:28;21.10;99.90
26517;DHT22;14190;51.342;6.338;2022-10-26T11:15:02;21.10;99.90
26517;DHT22;14190;51.342;6.338;2022-10-26T11:17:39;21.10;99.90
26517;DHT22;14190;51.342;6.338;2022-10-26T11:20:09;21.10;99.90
26517;DHT22;14190;51.342;6.338;2022-10-26T11:22:36;21.10;99.90
26517;DHT22;14190;51.342;6.338;2022-10-26T11:25:10;21.10;99.90
26517;DHT22;14190;51.342;6.338;2022-10-26T11:27:44;21.20;99.90
26517;DHT22;14190;51.342;6.338;2022-10-26T11:30:14;21.20;99.90
26517;DHT22;14190;51.342;6.338;2022-10-26T11:32:50;21.30;99.90
26517;DHT22;14190;51.342;6.338;2022-10-26T11:35:21;21.30;99.90
26517;DHT22;14190;51.342;6.338;2022-10-26T11:37:52;21.40;99.90
26517;DHT22;14190;51.342;6.338;2022-10-26T11:40:23;21.40;99.90
26517;DHT22;14190;51.342;6.338;2022-10-26T11:43:11;21.40;99.90
26517;DHT22;14190;51.342;6.338;2022-10-26T11:45:56;21.50;99.90
26517;DHT22;14190;51.342;6.338;2022-10-26T11:48:21;21.50;99.90
26517;DHT22;14190;51.342;6.338;2022-10-26T11:50:55;21.50;99.90
26517;DHT22;14190;51.342;6.338;2022-10-26T11:53:23;21.50;99.90
26517;DHT22;14190;51.342;6.338;2022-10-26T11:55:51;21.50;99.90
26517;DHT22;14190;51.342;6.338;2022-10-26T11:58:26;21.60;99.90
26517;DHT22;14190;51.342;6.338;2022-10-26T12:00:59;21.60;99.90
26517;DHT22;14190;51.342;6.338;2022-10-26T12:03:23;21.60;99.90
26517;DHT22;14190;51.342;6.338;2022-10-26T12:05:53;21.50;99.90
26517;DHT22;14190;51.342;6.338;2022-10-26T12:08:23;21.50;99.90
26517;DHT22;14190;51.342;6.338;2022-10-26T12:11:03;21.40;99.90
26517;DHT22;14190;51.342;6.338;2022-10-26T12:13:37;21.50;99.90
26517;DHT22;14190;51.342;6.338;2022-10-26T12:16:15;21.50;99.90
26517;DHT22;14190;51.342;6.338;2022-10-26T12:18:55;21.50;99.90
26517;DHT22;14190;51.342;6.338;2022-10-26T12:21:26;21.50;99.90
26517;DHT22;14190;51.342;6.338;2022-10-26T12:24:00;21.50;99.90
26517;DHT22;14190;51.342;6.338;2022-10-26T12:34:14;21.60;99.90
26517;DHT22;14190;51.342;6.338;2022-10-26T12:36:48;21.60;99.90
26517;DHT22;14190;51.342;6.338;2022-10-26T12:39:33;21.60;99.90
26517;DHT22;14190;51.342;6.338;2022-10-26T12:44:36;21.70;99.90
26517;DHT22;14190;51.342;6.338;2022-10-26T12:47:07;21.70;99.90
26517;DHT22;14190;51.342;6.338;2022-10-26T12:57:46;21.70;99.90
26517;DHT22;14190;51.342;6.338;2022-10-26T13:00:14;21.70;99.90
26517;DHT22;14190;51.342;6.338;2022-10-26T13:02:56;21.70;99.90
26517;DHT22;14190;51.342;6.338;2022-10-26T13:05:27;21.70;99.90
26517;DHT22;14190;51.342;6.338;2022-10-26T13:07:57;21.70;99.90
26517;DHT22;14190;51.342;6.338;2022-10-26T13:10:23;21.80;99.90
26517;DHT22;14190;51.342;6.338;2022-10-26T13:12:59;21.70;99.90
26517;DHT22;14190;51.342;6.338;2022-10-26T13:15:39;21.80;99.90
26517;DHT22;14190;51.342;6.338;2022-10-26T13:18:09;21.80;99.90
26517;DHT22;14190;51.342;6.338;2022-10-26T13:20:50;21.80;99.90
26517;DHT22;14190;51.342;6.338;2022-10-26T13:23:14;21.80;99.90
26517;DHT22;14190;51.342;6.338;2022-10-26T13:25:44;21.80;99.90
26517;DHT22;14190;51.342;6.338;2022-10-26T13:31:03;21.90;99.90
26517;DHT22;14190;51.342;6.338;2022-10-26T13:33:36;22.00;99.90
26517;DHT22;14190;51.342;6.338;2022-10-26T13:36:11;22.00;99.90
26517;DHT22;14190;51.342;6.338;2022-10-26T13:38:36;21.90;99.90
26517;DHT22;14190;51.342;6.338;2022-10-26T13:41:06;22.00;99.90
26517;DHT22;14190;51.342;6.338;2022-10-26T13:43:35;21.90;99.90
26517;DHT22;14190;51.342;6.338;2022-10-26T13:46:04;22.00;99.90
26517;DHT22;14190;51.342;6.338;2022-10-26T13:48:39;21.90;99.90
26517;DHT22;14190;51.342;6.338;2022-10-26T13:51:18;21.90;99.90
26517;DHT22;14190;51.342;6.338;2022-10-26T13:53:50;21.90;99.90
26517;DHT22;14190;51.342;6.338;2022-10-26T13:56:32;21.90;99.90
26517;DHT22;14190;51.342;6.338;2022-10-26T13:59:02;21.80;99.90
26517;DHT22;14190;51.342;6.338;2022-10-26T14:01:31;21.80;99.90
26517;DHT22;14190;51.342;6.338;2022-10-26T14:04:47;21.90;99.90
26517;DHT22;14190;51.342;6.338;2022-10-26T14:09:02;21.90;99.90
26517;DHT22;14190;51.342;6.338;2022-10-26T14:11:35;21.90;99.90
26517;DHT22;14190;51.342;6.338;2022-10-26T14:14:02;21.90;99.90
26517;DHT22;14190;51.342;6.338;2022-10-26T14:16:31;22.00;99.90
26517;DHT22;14190;51.342;6.338;2022-10-26T14:19:01;22.00;99.90
26517;DHT22;14190;51.342;6.338;2022-10-26T14:21:30;22.00;99.90
26517;DHT22;14190;51.342;6.338;2022-10-26T14:23:59;22.00;99.90
26517;DHT22;14190;51.342;6.338;2022-10-26T14:26:37;22.00;99.90
26517;DHT22;14190;51.342;6.338;2022-10-26T14:29:00;22.00;99.90
26517;DHT22;14190;51.342;6.338;2022-10-26T14:31:29;22.00;99.90
26517;DHT22;14190;51.342;6.338;2022-10-26T14:33:59;21.90;99.90
26517;DHT22;14190;51.342;6.338;2022-10-26T14:36:38;21.90;99.90
26517;DHT22;14190;51.342;6.338;2022-10-26T14:39:27;21.90;99.90
26517;DHT22;14190;51.342;6.338;2022-10-26T14:41:52;21.90;99.90
26517;DHT22;14190;51.342;6.338;2022-10-26T14:44:22;21.90;99.90
26517;DHT22;14190;51.342;6.338;2022-10-26T14:46:52;21.90;99.90
26517;DHT22;14190;51.342;6.338;2022-10-26T14:49:22;21.80;99.90
26517;DHT22;14190;51.342;6.338;2022-10-26T14:52:04;21.80;99.90
26517;DHT22;14190;51.342;6.338;2022-10-26T14:54:25;21.80;99.90
26517;DHT22;14190;51.342;6.338;2022-10-26T14:56:55;21.80;99.90
26517;DHT22;14190;51.342;6.338;2022-10-26T14:59:25;21.80;99.90
26517;DHT22;14190;51.342;6.338;2022-10-26T15:01:55;21.80;99.90
26517;DHT22;14190;51.342;6.338;2022-10-26T15:04:28;21.70;99.90
26517;DHT22;14190;51.342;6.338;2022-10-26T15:07:17;21.70;99.90
26517;DHT22;14190;51.342;6.338;2022-10-26T15:09:36;21.70;99.90
26517;DHT22;14190;51.342;6.338;2022-10-26T15:12:02;21.70;99.90
26517;DHT22;14190;51.342;6.338;2022-10-26T15:14:32;21.70;99.90
26517;DHT22;14190;51.342;6.338;2022-10-26T15:17:01;21.70;99.90
26517;DHT22;14190;51.342;6.338;2022-10-26T15:19:30;21.70;99.90
26517;DHT22;14190;51.342;6.338;2022-10-26T15:21:59;21.60;99.90
26517;DHT22;14190;51.342;6.338;2022-10-26T15:24:32;21.60;99.90
26517;DHT22;14190;51.342;6.338;2022-10-26T15:26:59;21.60;99.90
26517;DHT22;14190;51.342;6.338;2022-10-26T15:29:38;21.60;99.90
26517;DHT22;14190;51.342;6.338;2022-10-26T15:37:37;21.40;99.90
26517;DHT22;14190;51.342;6.338;2022-10-26T15:40:06;21.30;99.90
26517;DHT22;14190;51.342;6.338;2022-10-26T15:42:35;21.30;99.90
26517;DHT22;14190;51.342;6.338;2022-10-26T15:45:16;21.20;99.90
26517;DHT22;14190;51.342;6.338;2022-10-26T15:47:40;21.20;99.90
26517;DHT22;14190;51.342;6.338;2022-10-26T15:50:16;21.10;99.90
26517;DHT22;14190;51.342;6.338;2022-10-26T15:52:45;21.10;99.90
26517;DHT22;14190;51.342;6.338;2022-10-26T15:55:14;20.90;99.90
26517;DHT22;14190;51.342;6.338;2022-10-26T15:57:42;20.90;99.90
26517;DHT22;14190;51.342;6.338;2022-10-26T16:00:15;20.90;99.90
26517;DHT22;14190;51.342;6.338;2022-10-26T16:02:43;20.80;99.90
26517;DHT22;14190;51.342;6.338;2022-10-26T16:05:13;20.70;99.90
26517;DHT22;14190;51.342;6.338;2022-10-26T16:07:43;20.60;99.90
26517;DHT22;14190;51.342;6.338;2022-10-26T16:10:13;20.60;99.90
26517;DHT22;14190;51.342;6.338;2022-10-26T16:12:43;20.50;99.90
26517;DHT22;14190;51.342;6.338;2022-10-26T16:15:20;20.40;99.90
26517;DHT22;14190;51.342;6.338;2022-10-26T16:17:45;20.50;99.90
26517;DHT22;14190;51.342;6.338;2022-10-26T16:20:15;20.40;99.90
26517;DHT22;14190;51.342;6.338;2022-10-26T16:22:45;20.40;99.90
26517;DHT22;14190;51.342;6.338;2022-10-26T16:25:16;20.30;99.90
26517;DHT22;14190;51.342;6.338;2022-10-26T16:27:45;20.30;99.90
26517;DHT22;14190;51.342;6.338;2022-10-26T16:30:16;20.30;99.90
26517;DHT22;14190;51.342;6.338;2022-10-26T16:32:45;20.20;99.90
26517;DHT22;14190;51.342;6.338;2022-10-26T16:35:16;20.20;99.90
26517;DHT22;14190;51.342;6.338;2022-10-26T16:37:45;20.10;99.90
26517;DHT22;14190;51.342;6.338;2022-10-26T16:40:13;20.00;99.90
26517;DHT22;14190;51.342;6.338;2022-10-26T16:42:42;20.00;99.90
26517;DHT22;14190;51.342;6.338;2022-10-26T16:45:12;20.00;99.90
26517;DHT22;14190;51.342;6.338;2022-10-26T16:47:40;20.00;99.90
26517;DHT22;14190;51.342;6.338;2022-10-26T16:50:10;20.00;99.90
26517;DHT22;14190;51.342;6.338;2022-10-26T16:52:39;19.90;99.90
26517;DHT22;14190;51.342;6.338;2022-10-26T16:55:08;19.90;99.90
26517;DHT22;14190;51.342;6.338;2022-10-26T16:57:37;19.90;99.90
26517;DHT22;14190;51.342;6.338;2022-10-26T17:00:05;19.90;99.90
26517;DHT22;14190;51.342;6.338;2022-10-26T17:02:34;19.90;99.90